map of CJB home
CJB - Airport
Location
City:  Coimbatore, Tamil Nadu, India
ICAO:VOCB
IATA:CJB

Details
Type:Airport (Aerodrome, Airfield)
Use:Public/Civil
Latitude:1101'48"N (11.030031)
Longitude:7702'36"E (77.043383)
Datum:WGS 1984
Elevation:1324 ft (404 m)
Variation:1.57W (WMM2015v2 magnetic declination)
0.03 annual change
Runways:1
Longest:8480 × 150 ft (2585 × 45.5 m), paved

Time
Time Zone:UTC+5:30
Local Time:

Weather
METAR:VOCB 041330Z 06006KT 5000 HZ FEW015 SCT080 29/16 Q1016 NOSIG
TAF:VOCB 041100Z 0412/0518 07005KT 6000 FEW015
BECMG 0415/0416 VRB02KT 5000 HZ
BECMG 0500/0501 3000 HZ
BECMG 0504/0505 05005KT 5000 HZ
BECMG 0507/0508 6000

Related Locations
Nearby:
Farthest:SEII: 11364 mi / 18289 km
Puerto Villamil [General Villamil], Isabela Island, W, EC

Find:

   beyond  
but within

Other Information
Maps:
NOTAMs:
Links:
Sources:

  
  • flag of India
  

Sectional Chart

Flight Planning
at skyvector.com

Satellite Image

Google Maps Satellite view

 

Copyright © 2004-2019 Karl L. Swartz. All rights reserved.
The Great Circle Mapper name and logo are trademarks of the Great Circle Mapper.
All other trademarks mentioned herein belong to their respective owners.
Please see credits for attibutions and further copyright information.

  Follow gcmap on Facebook Follow gcmap on Twitter GCmap on LinkedIn

hCard Microformat

Geo Microformat